Time;durP1;ratioP1;P1;durP2;ratioP2;P2;SDS_P1;SDS_P2;PMS_P1;PMS_P2;Temp;Humidity;BMP_temperature;BMP_pressure;BME280_temperature;BME280_humidity;BME280_pressure;Samples;Min_cycle;Max_cycle;Signal;HPM_P1;HPM_P2
2022/06/29 00:00:45;;;;;;;3.13;0.98;;;;;;;26.49;38.42;101193.78;6219570;23;20004;-42
2022/06/29 00:03:14;;;;;;;2.47;0.73;;;;;;;26.46;38.30;101194.66;6194045;23;20058;-42
2022/06/29 00:05:43;;;;;;;2.25;0.82;;;;;;;26.46;38.51;101181.50;6246002;23;20004;-42
2022/06/29 00:08:12;;;;;;;3.17;1.10;;;;;;;26.52;38.25;101184.13;6246053;23;20372;-42
2022/06/29 00:10:40;;;;;;;2.60;0.80;;;;;;;26.53;38.18;101175.38;6245677;23;20426;-42
2022/06/29 00:13:09;;;;;;;2.20;0.93;;;;;;;26.23;38.51;101155.91;6245995;23;20027;-44
2022/06/29 00:15:38;;;;;;;2.22;0.70;;;;;;;26.28;38.71;101174.34;6245468;23;20036;-42
2022/06/29 00:18:07;;;;;;;2.58;0.95;;;;;;;26.24;38.66;101176.09;6246045;23;20004;-42
2022/06/29 00:20:35;;;;;;;4.32;1.00;;;;;;;26.30;38.68;101171.75;6245705;23;20420;-42
2022/06/29 00:23:04;;;;;;;3.35;1.00;;;;;;;26.31;38.41;101160.34;6245714;23;20032;-44
2022/06/29 00:25:32;;;;;;;1.90;0.70;;;;;;;26.33;38.87;101158.59;6245948;23;20214;-42
2022/06/29 00:28:01;;;;;;;2.97;0.70;;;;;;;26.28;38.70;101162.97;6218748;23;20078;-43
2022/06/29 00:30:30;;;;;;;2.35;0.98;;;;;;;26.21;38.81;101152.38;6244432;23;20504;-42
2022/06/29 00:32:58;;;;;;;2.75;0.98;;;;;;;26.11;38.82;101134.81;6245684;23;20011;-42
2022/06/29 00:35:27;;;;;;;3.22;0.93;;;;;;;26.13;39.05;101133.06;6245565;23;20316;-42
2022/06/29 00:37:55;;;;;;;2.28;0.70;;;;;;;26.18;38.90;101138.34;6218856;23;20004;-42
2022/06/29 00:40:24;;;;;;;1.60;0.60;;;;;;;26.16;38.94;101145.34;6169691;23;20004;-42
2022/06/29 00:42:52;;;;;;;2.92;0.93;;;;;;;26.24;39.03;101151.53;6244100;23;20128;-42
2022/06/29 00:45:21;;;;;;;2.60;0.82;;;;;;;26.14;39.12;101145.34;6245814;23;20427;-42
2022/06/29 00:47:50;;;;;;;1.52;0.88;;;;;;;26.22;38.81;101143.63;6246072;23;20027;-45
2022/06/29 00:50:18;;;;;;;2.88;1.15;;;;;;;26.19;38.90;101161.16;6218706;23;20122;-42
2022/06/29 00:52:47;;;;;;;2.80;0.85;;;;;;;26.09;38.86;101136.50;6243965;23;20032;-42
2022/06/29 00:55:19;;;;;;;1.63;0.68;;;;;;;26.18;38.94;101156.75;6245351;23;20008;-42
2022/06/29 00:57:49;;;;;;;2.63;0.77;;;;;;;26.12;39.03;101160.22;6245786;23;20350;-42
2022/06/29 01:00:17;;;;;;;2.20;0.90;;;;;;;26.08;39.04;101164.53;6221517;23;20081;-53
2022/06/29 01:02:46;;;;;;;2.00;0.90;;;;;;;26.16;38.88;101169.00;6247252;23;20034;-42
2022/06/29 01:05:15;;;;;;;1.88;0.70;;;;;;;26.13;39.23;101159.38;6220778;23;20375;-44
2022/06/29 01:07:43;;;;;;;2.30;0.80;;;;;;;26.05;39.12;101133.00;6247279;23;20012;-42
2022/06/29 01:10:12;;;;;;;2.60;0.80;;;;;;;26.16;38.96;101143.59;6220575;23;20418;-47
2022/06/29 01:12:41;;;;;;;3.03;0.88;;;;;;;26.15;39.07;101131.31;6247323;23;20011;-42
2022/06/29 01:15:09;;;;;;;2.60;0.70;;;;;;;26.07;39.09;101111.94;6247044;23;20012;-44
2022/06/29 01:17:38;;;;;;;3.28;1.00;;;;;;;26.16;39.16;101135.69;6247100;23;20011;-46
2022/06/29 01:20:07;;;;;;;3.58;0.90;;;;;;;26.20;38.84;101144.50;6247536;23;20427;-44
2022/06/29 01:22:35;;;;;;;3.67;0.90;;;;;;;26.18;39.00;101139.22;6247426;23;20000;-43
2022/06/29 01:25:04;;;;;;;2.25;0.85;;;;;;;26.11;38.89;101113.78;6247369;23;20023;-44
2022/06/29 01:27:33;;;;;;;3.45;0.80;;;;;;;26.16;38.93;101119.91;6247399;23;20320;-45
2022/06/29 01:30:02;;;;;;;2.03;0.90;;;;;;;26.16;38.78;101121.69;6247083;23;20007;-45
2022/06/29 01:32:30;;;;;;;2.90;0.93;;;;;;;26.15;38.80;101119.91;6246988;23;20379;-42
2022/06/29 01:34:59;;;;;;;2.60;0.70;;;;;;;26.17;38.84;101126.94;6246888;23;20130;-47
2022/06/29 01:37:28;;;;;;;3.50;1.13;;;;;;;26.17;38.83;101121.69;6247110;23;20028;-46
2022/06/29 01:39:56;;;;;;;2.15;0.90;;;;;;;26.08;39.04;101114.56;6247394;23;20035;-42
2022/06/29 01:42:25;;;;;;;3.05;1.13;;;;;;;26.08;38.99;101114.56;6247468;23;20371;-49
2022/06/29 01:44:53;;;;;;;4.07;1.25;;;;;;;26.08;39.19;101119.84;6247222;23;20027;-43
2022/06/29 01:47:22;;;;;;;3.13;1.20;;;;;;;26.04;39.15;101118.09;6247296;23;20000;-43
2022/06/29 01:49:50;;;;;;;2.47;0.95;;;;;;;26.07;39.04;101123.34;6247088;23;20466;-47
2022/06/29 01:52:19;;;;;;;3.88;1.50;;;;;;;26.07;39.04;101117.22;6246036;23;20451;-54
2022/06/29 01:54:48;;;;;;;3.90;0.98;;;;;;;26.10;39.06;101117.25;6246838;23;20395;-42
2022/06/29 01:57:16;;;;;;;3.95;1.00;;;;;;;26.13;38.94;101113.78;6246925;23;20012;-42
2022/06/29 01:59:44;;;;;;;3.20;1.08;;;;;;;26.09;39.03;101107.59;6246743;23;20316;-46
2022/06/29 02:02:13;;;;;;;3.55;1.17;;;;;;;26.15;38.67;101104.16;6246991;23;20008;-45
2022/06/29 02:04:41;;;;;;;4.22;1.17;;;;;;;26.16;38.70;101106.78;6246572;23;20004;-43
2022/06/29 02:07:10;;;;;;;4.60;1.52;;;;;;;26.07;39.15;101102.31;6245147;23;20391;-43
2022/06/29 02:09:38;;;;;;;6.55;1.70;;;;;;;26.02;39.17;101097.88;6245911;23;20004;-49
2022/06/29 02:12:06;;;;;;;5.38;1.63;;;;;;;25.94;39.32;101101.38;6220029;23;20004;-51
2022/06/29 02:14:34;;;;;;;5.43;1.55;;;;;;;25.91;39.24;101098.72;6220044;23;20011;-43
2022/06/29 02:17:03;;;;;;;3.33;1.35;;;;;;;26.00;38.90;101102.25;6219692;23;20015;-44
2022/06/29 02:19:32;;;;;;;5.38;1.02;;;;;;;25.96;39.13;101098.72;6219793;23;20492;-44
2022/06/29 02:22:01;;;;;;;3.65;1.25;;;;;;;25.93;39.24;101096.97;6246777;23;20007;-50
2022/06/29 02:24:30;;;;;;;4.57;1.42;;;;;;;25.92;39.24;101103.09;6246835;23;20034;-45
2022/06/29 02:26:59;;;;;;;9.82;1.58;;;;;;;25.88;39.22;101109.19;6247114;23;20000;-44
2022/06/29 02:29:27;;;;;;;6.22;1.65;;;;;;;25.89;39.51;101112.72;6246756;23;20050;-47
2022/06/29 02:34:46;;;;;;;6.75;1.60;;;;;;;25.94;39.24;101109.25;6229811;23;20013;-44
2022/06/29 02:37:15;;;;;;;5.40;1.67;;;;;;;25.90;39.28;101109.19;6246521;23;20010;-44
2022/06/29 02:39:44;;;;;;;5.95;1.77;;;;;;;25.96;39.04;101111.00;6219640;23;20317;-44
2022/06/29 02:42:12;;;;;;;5.78;1.50;;;;;;;25.91;39.12;101109.22;6246256;23;20008;-54
2022/06/29 02:44:42;;;;;;;5.47;1.77;;;;;;;25.84;38.99;101099.53;6246402;23;20004;-45
2022/06/29 02:47:11;;;;;;;4.78;1.50;;;;;;;25.86;39.20;101105.66;6246612;23;20004;-46
2022/06/29 02:49:39;;;;;;;5.20;1.55;;;;;;;25.82;39.36;101093.38;6246698;23;20091;-47
2022/06/29 02:52:08;;;;;;;5.55;1.48;;;;;;;25.85;39.48;101101.28;6246518;23;20091;-45
2022/06/29 02:54:37;;;;;;;4.82;1.40;;;;;;;25.82;39.44;101096.00;6245964;23;20000;-46
2022/06/29 02:57:05;;;;;;;4.60;1.60;;;;;;;25.83;39.29;101095.13;6246300;23;20039;-49
2022/06/29 02:59:34;;;;;;;6.78;1.65;;;;;;;25.88;39.04;101097.81;6246017;23;20312;-47
2022/06/29 03:02:02;;;;;;;6.72;1.42;;;;;;;25.85;39.10;101103.03;6246072;23;20015;-47
2022/06/29 03:04:34;;;;;;;5.05;1.60;;;;;;;25.85;39.17;101100.41;6246184;23;20069;-44
2022/06/29 03:07:03;;;;;;;5.72;1.73;;;;;;;25.81;39.04;101102.16;6246426;23;20008;-46
2022/06/29 03:09:32;;;;;;;7.65;2.03;;;;;;;25.75;39.13;101088.97;6245851;23;20423;-44
2022/06/29 03:12:00;;;;;;;4.60;1.50;;;;;;;25.79;39.08;101091.59;6245832;23;20087;-44
2022/06/29 03:14:29;;;;;;;5.40;1.50;;;;;;;25.85;39.12;101092.53;6246045;23;20059;-44
2022/06/29 03:16:57;;;;;;;7.85;2.15;;;;;;;25.85;39.13;101095.16;6218926;23;20008;-44
2022/06/29 03:19:26;;;;;;;7.93;2.10;;;;;;;25.80;39.25;101097.75;6245574;23;20395;-43
2022/06/29 03:21:54;;;;;;;6.57;1.55;;;;;;;25.79;39.38;101088.13;6246198;23;20004;-43
2022/06/29 03:24:23;;;;;;;6.63;1.85;;;;;;;25.77;39.23;101097.72;6219173;23;20394;-44
2022/06/29 03:26:52;;;;;;;4.53;1.60;;;;;;;25.76;39.04;101095.97;6246295;23;20005;-45
2022/06/29 03:29:20;;;;;;;5.70;1.90;;;;;;;25.81;39.09;101093.38;6245982;23;20055;-49
2022/06/29 03:31:49;;;;;;;7.20;1.67;;;;;;;25.80;39.21;101100.38;6245718;23;20004;-42
2022/06/29 03:34:17;;;;;;;5.72;1.73;;;;;;;25.78;39.25;101091.63;6246236;23;20004;-43
2022/06/29 03:36:46;;;;;;;4.40;1.50;;;;;;;25.77;38.86;101093.34;6245702;23;20494;-43
2022/06/29 03:39:15;;;;;;;6.82;1.90;;;;;;;25.76;39.00;101091.59;6245373;23;20007;-47
2022/06/29 03:41:43;;;;;;;4.22;1.38;;;;;;;25.75;39.19;101088.97;6245949;23;20086;-47
2022/06/29 03:44:12;;;;;;;3.47;1.65;;;;;;;25.74;38.98;101098.56;6218414;23;20008;-42
2022/06/29 03:46:40;;;;;;;7.28;2.08;;;;;;;25.70;39.07;101099.44;6245725;23;20008;-45
2022/06/29 03:49:09;;;;;;;4.90;1.63;;;;;;;25.72;39.10;101099.44;6245613;23;20031;-42
2022/06/29 03:51:37;;;;;;;7.43;1.88;;;;;;;25.71;39.10;101100.31;6219125;23;20023;-44
2022/06/29 03:54:06;;;;;;;3.95;1.33;;;;;;;25.69;39.22;101108.19;6245996;23;20030;-48
2022/06/29 03:56:34;;;;;;;4.28;1.33;;;;;;;25.67;38.91;101102.03;6245901;23;20432;-43
2022/06/29 03:59:03;;;;;;;3.90;1.45;;;;;;;25.71;39.23;101103.81;6246044;23;20008;-43
2022/06/29 04:01:32;;;;;;;3.60;1.27;;;;;;;25.66;39.00;101108.16;6245560;23;20004;-42
2022/06/29 04:04:00;;;;;;;5.75;1.75;;;;;;;25.64;39.14;101115.13;6245557;23;20000;-42
2022/06/29 04:06:29;;;;;;;4.40;1.75;;;;;;;25.70;38.84;101123.09;6245578;23;20090;-45
2022/06/29 04:08:57;;;;;;;3.08;1.23;;;;;;;25.67;38.97;101107.28;6246232;23;20022;-43
2022/06/29 04:12:07;;;;;;;4.18;1.50;;;;;;;25.65;39.10;101110.78;6245657;23;20463;-45
2022/06/29 04:14:13;;;;;;;5.32;1.33;;;;;;;25.66;38.86;101118.66;6240956;23;20486;-45
2022/06/29 04:16:41;;;;;;;4.75;1.38;;;;;;;25.67;38.96;101122.16;6245941;23;20447;-43
2022/06/29 04:19:10;;;;;;;4.05;1.35;;;;;;;25.64;39.12;101123.03;6246091;23;20000;-47
2022/06/29 04:21:39;;;;;;;3.80;1.02;;;;;;;25.65;38.97;101119.53;6218957;23;20008;-46
2022/06/29 04:24:07;;;;;;;5.75;1.95;;;;;;;25.63;39.09;101114.28;6245738;23;20001;-43
2022/06/29 04:26:36;;;;;;;6.13;1.17;;;;;;;25.49;39.20;101100.13;6219124;23;20005;-46
2022/06/29 04:29:05;;;;;;;5.15;1.80;;;;;;;25.60;39.20;101118.59;6245444;23;20090;-45
2022/06/29 04:31:33;;;;;;;3.85;0.93;;;;;;;25.58;39.01;101113.34;6219973;23;20450;-46
2022/06/29 04:34:02;;;;;;;3.40;1.27;;;;;;;25.60;39.19;101115.97;6221022;23;20075;-51
2022/06/29 04:36:31;;;;;;;4.05;1.17;;;;;;;25.59;39.14;101115.09;6247141;23;20375;-46
2022/06/29 04:39:00;;;;;;;5.07;1.33;;;;;;;25.60;39.05;101121.22;6247957;23;20006;-43
2022/06/29 04:41:29;;;;;;;5.15;1.17;;;;;;;25.59;39.03;101114.22;6247482;23;20008;-49
2022/06/29 04:43:58;;;;;;;5.93;1.40;;;;;;;25.58;39.11;101112.44;6247353;23;20093;-43
2022/06/29 04:46:26;;;;;;;3.92;1.23;;;;;;;25.58;39.17;101104.56;6247534;23;20022;-44
2022/06/29 04:48:58;;;;;;;2.72;0.98;;;;;;;25.49;39.18;101089.59;6247538;23;20011;-46
2022/06/29 04:51:28;;;;;;;2.50;1.15;;;;;;;25.53;39.02;101093.16;6222081;23;20293;-42
2022/06/29 04:53:56;;;;;;;3.45;1.10;;;;;;;25.61;38.90;101097.63;6247508;23;20004;-46
2022/06/29 04:56:28;;;;;;;3.28;1.02;;;;;;;25.61;39.08;101099.34;6247191;23;20378;-44
2022/06/29 04:58:55;;;;;;;5.18;1.20;;;;;;;25.63;39.05;101108.13;6247325;23;20032;-45
2022/06/29 05:01:24;;;;;;;5.40;1.10;;;;;;;25.71;38.89;101105.56;6247174;23;20461;-48
2022/06/29 05:03:53;;;;;;;2.75;0.93;;;;;;;25.64;38.98;101096.75;6247424;23;20042;-45
2022/06/29 05:06:23;;;;;;;3.67;1.20;;;;;;;25.67;39.04;101109.91;6246170;23;20000;-49
2022/06/29 05:08:51;;;;;;;2.03;0.90;;;;;;;25.66;38.83;101107.25;6247471;23;20343;-49
2022/06/29 05:11:22;;;;;;;3.65;1.10;;;;;;;25.62;38.87;101102.00;6247589;23;20334;-43
2022/06/29 05:13:50;;;;;;;3.00;1.08;;;;;;;25.58;38.91;101097.59;6247391;23;20004;-43
2022/06/29 05:16:20;;;;;;;4.93;1.35;;;;;;;25.60;39.17;101093.22;6247901;23;20004;-43
2022/06/29 05:18:48;;;;;;;4.60;1.27;;;;;;;25.58;39.05;101092.34;6220426;23;20400;-47
2022/06/29 05:21:18;;;;;;;3.55;1.35;;;;;;;25.54;39.13;101090.53;6247372;23;20008;-45
2022/06/29 05:23:46;;;;;;;4.65;1.00;;;;;;;25.50;39.52;101088.75;6247086;23;20010;-49
2022/06/29 05:26:15;;;;;;;3.45;1.25;;;;;;;25.54;39.43;101090.53;6247267;23;20494;-43
2022/06/29 05:28:43;;;;;;;6.80;1.58;;;;;;;25.55;39.25;101092.31;6247211;23;20008;-43
2022/06/29 05:31:12;;;;;;;4.40;1.63;;;;;;;25.63;39.40;101095.00;6247144;23;20440;-54
2022/06/29 05:33:41;;;;;;;7.57;1.15;;;;;;;25.65;39.18;101102.91;6247280;23;20066;-43
2022/06/29 05:36:10;;;;;;;3.75;1.50;;;;;;;25.69;39.27;101108.19;6246825;23;20031;-42
2022/06/29 05:38:39;;;;;;;5.45;1.42;;;;;;;25.72;39.04;101112.56;6247123;23;20075;-53
2022/06/29 05:41:08;;;;;;;2.95;1.05;;;;;;;25.76;39.14;101120.50;6220473;23;20077;-44
2022/06/29 05:43:36;;;;;;;4.78;1.35;;;;;;;25.79;39.07;101117.03;6246673;23;20007;-42
2022/06/29 05:46:05;;;;;;;4.78;1.00;;;;;;;25.77;38.93;101111.75;6247393;23;20102;-46
2022/06/29 05:48:33;;;;;;;4.35;1.40;;;;;;;25.73;39.22;101102.06;6246725;23;20019;-43
2022/06/29 05:51:02;;;;;;;6.00;1.52;;;;;;;25.84;38.81;101106.53;6220355;23;20083;-45
2022/06/29 05:53:30;;;;;;;4.15;0.98;;;;;;;25.94;38.70;101108.34;6220066;23;20043;-46
2022/06/29 05:55:58;;;;;;;4.65;1.27;;;;;;;26.12;38.11;101104.13;6246400;23;20015;-43
2022/06/29 05:58:26;;;;;;;3.17;0.80;;;;;;;26.26;38.14;101107.72;6246649;23;20081;-43
2022/06/29 06:00:55;;;;;;;4.25;1.02;;;;;;;26.31;38.13;101107.75;6220192;23;20015;-42
2022/06/29 06:03:23;;;;;;;5.13;1.63;;;;;;;26.39;38.08;101116.56;6246676;23;20008;-45
2022/06/29 06:05:51;;;;;;;3.72;1.33;;;;;;;26.41;37.93;101114.81;6246784;23;20011;-53
2022/06/29 06:08:19;;;;;;;6.85;1.38;;;;;;;26.46;38.18;101127.97;6246634;23;20424;-43
2022/06/29 06:10:48;;;;;;;3.50;1.27;;;;;;;26.51;38.13;101131.53;6246570;23;20332;-43
2022/06/29 06:13:15;;;;;;;5.18;1.10;;;;;;;26.51;38.06;101128.91;6246361;23;20015;-44
2022/06/29 06:15:44;;;;;;;5.57;1.45;;;;;;;26.56;37.96;101129.78;6247011;23;20031;-44
2022/06/29 06:18:12;;;;;;;7.40;1.30;;;;;;;26.61;37.96;101142.97;6247026;23;20004;-54
2022/06/29 06:20:41;;;;;;;6.63;1.15;;;;;;;26.61;38.11;101137.72;6247018;23;20000;-44
2022/06/29 06:23:09;;;;;;;6.10;1.30;;;;;;;26.62;38.07;101144.72;6246627;23;20317;-45
2022/06/29 06:25:38;;;;;;;4.95;1.15;;;;;;;26.61;38.08;101138.56;6246887;23;20331;-43
2022/06/29 06:28:06;;;;;;;3.38;1.15;;;;;;;26.70;37.84;101143.00;6246893;23;20007;-43
2022/06/29 06:30:35;;;;;;;3.63;1.08;;;;;;;26.72;37.88;101132.50;6246741;23;20012;-44
2022/06/29 06:33:03;;;;;;;2.03;0.85;;;;;;;26.74;37.77;101141.25;6246256;23;20058;-43
2022/06/29 06:35:32;;;;;;;3.78;1.10;;;;;;;26.71;37.87;101141.25;6246844;23;20032;-53
2022/06/29 06:38:01;;;;;;;3.60;1.23;;;;;;;26.62;37.89;101118.44;6246725;23;20034;-53
2022/06/29 06:43:17;;;;;;;4.43;1.08;;;;;;;26.84;37.75;101135.19;6241017;23;20058;-43
2022/06/29 06:45:46;;;;;;;5.32;1.65;;;;;;;26.74;37.58;101131.63;6246415;23;20003;-42
2022/06/29 06:48:14;;;;;;;6.50;1.67;;;;;;;26.89;37.92;101158.91;6246144;23;20011;-47
2022/06/29 06:50:42;;;;;;;3.40;1.00;;;;;;;26.96;37.61;101144.91;6246086;23;20594;-55
2022/06/29 06:53:11;;;;;;;4.13;1.20;;;;;;;26.99;37.62;101145.78;6246170;23;20000;-44
2022/06/29 06:55:39;;;;;;;6.68;1.98;;;;;;;27.05;37.76;101147.53;6245815;23;20016;-47
2022/06/29 06:58:08;;;;;;;2.97;1.17;;;;;;;27.04;37.91;101139.66;6246196;23;20004;-53
2022/06/29 07:00:37;;;;;;;4.60;1.30;;;;;;;27.04;37.87;101142.28;6219792;23;20083;-44
2022/06/29 07:03:05;;;;;;;4.38;1.33;;;;;;;27.11;37.77;101137.03;6246121;23;20083;-46
2022/06/29 07:05:33;;;;;;;4.35;1.25;;;;;;;27.12;37.86;101138.81;6245970;23;20008;-44
2022/06/29 07:08:02;;;;;;;5.32;1.55;;;;;;;27.18;37.80;101148.47;6246033;23;20465;-46
2022/06/29 07:10:29;;;;;;;5.50;1.20;;;;;;;27.22;37.64;101144.06;6246393;23;20007;-55
2022/06/29 07:12:58;;;;;;;4.43;1.20;;;;;;;27.29;37.71;101146.72;6219397;23;20011;-45
2022/06/29 07:15:26;;;;;;;4.45;1.30;;;;;;;27.33;37.98;101146.75;6246376;23;20000;-44
2022/06/29 07:17:55;;;;;;;4.00;1.20;;;;;;;27.34;37.63;101137.97;6246259;23;20004;-43
2022/06/29 07:20:28;;;;;;;3.97;1.40;;;;;;;27.37;37.60;101138.84;6219096;23;20316;-44
2022/06/29 07:22:56;;;;;;;3.22;1.20;;;;;;;27.38;37.59;101142.38;6246034;23;20376;-44
2022/06/29 07:25:25;;;;;;;3.55;1.33;;;;;;;27.38;37.59;101140.59;6245890;23;20560;-52
2022/06/29 07:27:52;;;;;;;7.90;1.48;;;;;;;27.41;37.61;101143.25;6219058;23;20015;-43
2022/06/29 07:30:21;;;;;;;5.60;1.50;;;;;;;27.43;37.56;101146.75;6245439;23;20028;-44
2022/06/29 07:32:50;;;;;;;6.15;1.73;;;;;;;27.34;37.75;101152.00;6219478;23;20062;-44
2022/06/29 07:35:18;;;;;;;4.47;1.38;;;;;;;27.37;37.68;101154.63;6246219;23;20008;-46
2022/06/29 07:37:47;;;;;;;6.75;1.38;;;;;;;27.39;37.67;101154.63;6245891;23;20129;-50
2022/06/29 07:40:16;;;;;;;4.75;1.20;;;;;;;27.40;37.58;101153.75;6246189;23;20016;-48
2022/06/29 07:42:44;;;;;;;4.68;1.95;;;;;;;27.36;37.58;101158.16;6245811;23;20079;-44
2022/06/29 07:45:13;;;;;;;5.47;1.48;;;;;;;27.43;37.56;101154.66;6244844;23;20020;-43
2022/06/29 07:47:41;;;;;;;5.65;1.70;;;;;;;27.43;37.17;101143.22;6246069;23;20071;-43
2022/06/29 07:50:13;;;;;;;9.75;1.63;;;;;;;27.47;37.39;101146.81;6245603;23;20000;-43
2022/06/29 07:52:43;;;;;;;4.32;1.15;;;;;;;27.51;37.43;101145.91;6245810;23;20000;-43
2022/06/29 07:55:12;;;;;;;25.67;1.80;;;;;;;27.60;37.41;101151.19;6246245;23;20023;-43
2022/06/29 07:57:40;;;;;;;9.73;1.58;;;;;;;27.60;37.11;101153.84;6246175;23;20012;-42
2022/06/29 08:00:09;;;;;;;6.85;1.35;;;;;;;27.60;37.35;101153.84;6219339;23;20000;-42
2022/06/29 08:02:37;;;;;;;5.43;1.85;;;;;;;27.64;37.32;101158.19;6245504;23;20007;-46
2022/06/29 08:05:06;;;;;;;8.18;1.67;;;;;;;27.67;37.44;101152.94;6244995;23;20625;-42
2022/06/29 08:07:35;;;;;;;4.50;1.45;;;;;;;27.68;37.27;101145.94;6246055;23;20321;-47
2022/06/29 08:10:05;;;;;;;7.07;1.50;;;;;;;27.72;37.42;101142.38;6245704;23;20009;-43
2022/06/29 08:12:35;;;;;;;5.28;1.65;;;;;;;27.74;37.25;101143.28;6245297;23;20014;-42
2022/06/29 08:15:04;;;;;;;5.43;1.40;;;;;;;27.66;37.13;101132.72;6245781;23;20003;-43
2022/06/29 08:17:33;;;;;;;5.78;1.50;;;;;;;27.74;37.02;101145.91;6245851;23;20008;-44
2022/06/29 08:20:02;;;;;;;7.30;1.85;;;;;;;27.75;37.14;101142.41;6194110;23;20004;-46
2022/06/29 08:22:31;;;;;;;4.07;1.40;;;;;;;27.83;36.96;101153.81;6218872;23;20009;-44
2022/06/29 08:24:59;;;;;;;5.75;1.38;;;;;;;27.70;37.10;101131.00;6245125;23;20008;-42
2022/06/29 08:27:28;;;;;;;4.85;1.25;;;;;;;27.78;37.02;101138.91;6245543;23;20018;-42
2022/06/29 08:29:56;;;;;;;9.07;1.70;;;;;;;27.86;37.20;101148.56;6244077;23;20004;-43
2022/06/29 08:32:25;;;;;;;5.90;1.38;;;;;;;27.87;37.07;101141.50;6245121;23;20004;-43
2022/06/29 08:34:58;;;;;;;3.50;1.38;;;;;;;27.96;36.97;101151.19;6193904;23;20008;-42
2022/06/29 08:37:27;;;;;;;3.88;1.05;;;;;;;27.89;37.06;101131.84;6245663;23;20436;-45
2022/06/29 08:39:56;;;;;;;3.38;1.05;;;;;;;27.98;36.92;101134.47;6245892;23;20015;-43
2022/06/29 08:42:26;;;;;;;3.47;1.10;;;;;;;27.99;36.91;101133.59;6245603;23;20065;-46
2022/06/29 08:44:54;;;;;;;7.60;1.60;;;;;;;28.01;37.13;101139.75;6245807;23;20095;-48
2022/06/29 08:47:23;;;;;;;3.90;1.42;;;;;;;28.07;36.74;101143.25;6245991;23;20035;-42
2022/06/29 08:49:52;;;;;;;5.05;1.25;;;;;;;28.05;36.59;101136.22;6245890;23;20324;-42
2022/06/29 08:52:20;;;;;;;7.78;1.65;;;;;;;28.09;36.84;101149.41;6219178;23;20000;-42
2022/06/29 08:54:50;;;;;;;4.22;1.35;;;;;;;28.09;36.72;101145.00;6245692;23;20099;-42
2022/06/29 08:57:18;;;;;;;5.68;1.50;;;;;;;28.07;36.60;101148.53;6244009;23;20012;-46
2022/06/29 08:59:48;;;;;;;4.28;1.40;;;;;;;28.09;36.90;101146.78;6219358;23;20007;-42
2022/06/29 09:02:16;;;;;;;4.28;1.33;;;;;;;28.12;36.81;101147.66;6194429;23;20012;-45
2022/06/29 09:04:45;;;;;;;5.10;1.27;;;;;;;28.14;36.85;101151.19;6245832;23;20000;-42
2022/06/29 09:07:13;;;;;;;5.93;1.42;;;;;;;28.12;36.87;101146.81;6246045;23;20004;-46
2022/06/29 09:10:01;;;;;;;4.07;0.98;;;;;;;28.07;37.05;101138.84;6243790;23;20062;-42
2022/06/29 09:12:31;;;;;;;3.15;1.08;;;;;;;28.15;36.83;101152.94;6244028;23;20031;-45
2022/06/29 09:15:01;;;;;;;4.32;1.20;;;;;;;28.18;36.78;101157.31;6245398;23;20091;-42
2022/06/29 09:17:32;;;;;;;3.47;1.10;;;;;;;28.18;36.70;101155.59;6245735;23;20425;-43
2022/06/29 09:20:02;;;;;;;5.45;1.60;;;;;;;28.13;36.81;101149.44;6246141;23;19997;-43
2022/06/29 09:22:31;;;;;;;4.70;1.20;;;;;;;28.16;36.74;101156.44;6247350;23;20058;-46
2022/06/29 09:24:59;;;;;;;7.35;1.52;;;;;;;28.18;36.60;101152.06;6247161;23;20008;-43
2022/06/29 09:27:28;;;;;;;3.58;1.10;;;;;;;28.17;36.61;101150.28;6247310;23;20044;-43
2022/06/29 09:29:57;;;;;;;6.63;1.52;;;;;;;28.13;36.50;101161.75;6245716;23;20024;-42
2022/06/29 09:32:28;;;;;;;4.82;1.10;;;;;;;28.15;36.62;101167.88;6246154;23;20000;-42
2022/06/29 09:34:56;;;;;;;6.50;1.63;;;;;;;28.18;36.46;101160.84;6220984;23;20396;-42
2022/06/29 09:37:26;;;;;;;3.03;1.15;;;;;;;28.18;36.50;101160.84;6245599;23;20431;-43
2022/06/29 09:39:56;;;;;;;4.07;1.52;;;;;;;28.18;36.53;101170.50;6247129;23;20428;-43
2022/06/29 09:42:27;;;;;;;7.10;1.42;;;;;;;28.21;36.47;101170.50;6247433;23;19996;-43
2022/06/29 09:44:56;;;;;;;4.80;1.15;;;;;;;28.07;36.67;101140.63;6220502;23;20070;-45
2022/06/29 09:47:24;;;;;;;7.50;1.65;;;;;;;28.21;36.52;101157.31;6247089;23;20448;-44
2022/06/29 09:49:59;;;;;;;5.25;1.40;;;;;;;28.25;36.53;101163.47;6247092;23;20004;-42
2022/06/29 09:52:28;;;;;;;5.82;2.03;;;;;;;28.23;36.34;101155.56;6246699;23;20333;-42
2022/06/29 09:54:58;;;;;;;3.88;1.17;;;;;;;28.24;36.32;101144.13;6246274;23;20011;-43
2022/06/29 09:57:30;;;;;;;3.35;0.95;;;;;;;28.23;36.47;101144.13;6246575;23;20092;-43
2022/06/29 10:02:47;;;;;;;4.10;1.50;;;;;;;28.31;36.42;101145.88;6235368;23;20088;-42
2022/06/29 10:05:17;;;;;;;4.50;1.38;;;;;;;28.31;36.24;101137.09;6247122;23;20466;-43
2022/06/29 10:07:48;;;;;;;5.28;1.65;;;;;;;28.32;36.15;101137.06;6247001;23;20008;-42
2022/06/29 10:10:19;;;;;;;4.72;1.33;;;;;;;28.35;36.14;101136.19;6245779;23;20374;-43
2022/06/29 10:13:48;;;;;;;4.57;1.17;;;;;;;28.31;36.24;101140.59;6246879;23;20001;-48
2022/06/29 10:15:57;;;;;;;5.88;1.40;;;;;;;28.34;36.34;101145.84;6235378;23;20066;-42
2022/06/29 10:18:30;;;;;;;5.88;1.85;;;;;;;28.35;36.17;101147.63;6246769;23;20036;-43
2022/06/29 10:21:00;;;;;;;6.03;1.48;;;;;;;28.31;36.31;101140.59;6246811;23;20411;-43
2022/06/29 10:23:49;;;;;;;5.55;1.65;;;;;;;28.33;36.48;101149.38;6220034;23;20087;-42
2022/06/29 10:26:37;;;;;;;2.72;1.02;;;;;;;28.35;36.27;101150.25;6237569;23;20088;-45
2022/06/29 10:29:09;;;;;;;4.82;1.63;;;;;;;28.40;36.25;101154.66;6246430;23;20027;-42
2022/06/29 10:31:57;;;;;;;4.15;1.42;;;;;;;28.35;36.51;101157.31;6219965;23;20419;-45
2022/06/29 10:34:30;;;;;;;3.25;1.20;;;;;;;28.41;36.15;101161.69;6219713;23;20012;-42
2022/06/29 10:37:09;;;;;;;5.38;1.67;;;;;;;28.32;36.33;101144.97;6246715;23;20011;-46
2022/06/29 10:39:50;;;;;;;5.30;1.50;;;;;;;28.30;35.22;101154.66;6246157;23;20008;-43
2022/06/29 10:45:20;;;;;;;6.43;2.00;;;;;;;27.48;35.08;101157.31;6237099;23;20447;-42
2022/06/29 10:47:56;;;;;;;4.70;1.52;;;;;;;27.33;35.64;101168.66;6220103;23;20008;-47
2022/06/29 10:50:27;;;;;;;8.00;2.05;;;;;;;27.15;35.64;101161.63;6219732;23;20004;-43
2022/06/29 10:52:57;;;;;;;11.80;2.55;;;;;;;26.86;35.71;101167.69;6220183;23;20030;-44
2022/06/29 10:55:28;;;;;;;6.15;1.75;;;;;;;26.78;36.34;101169.34;6219536;23;20086;-42
2022/06/29 10:57:58;;;;;;;7.18;1.75;;;;;;;26.43;36.11;101170.03;6246538;23;20057;-43
2022/06/29 11:00:28;;;;;;;7.20;2.08;;;;;;;26.32;36.77;101159.47;6246766;23;20007;-49
2022/06/29 11:02:57;;;;;;;6.18;1.75;;;;;;;26.21;36.71;101152.38;6245188;23;20194;-41
2022/06/29 11:05:26;;;;;;;8.00;2.50;;;;;;;26.20;37.16;101152.41;6246477;23;20011;-42
2022/06/29 11:13:31;;;;;;;9.13;2.10;;;;;;;26.37;37.48;101156.00;6235210;23;20000;-41
2022/06/29 11:16:01;;;;;;;8.65;2.70;;;;;;;26.42;37.60;101165.66;6244278;23;20091;-41
2022/06/29 11:18:32;;;;;;;10.30;2.72;;;;;;;26.28;37.44;101147.19;6220075;23;20054;-42
2022/06/29 11:21:03;;;;;;;9.38;2.13;;;;;;;26.20;37.72;101163.78;6246071;23;20004;-42
2022/06/29 11:23:33;;;;;;;9.85;2.15;;;;;;;26.07;37.73;101160.13;6220614;23;20004;-42
2022/06/29 11:26:03;;;;;;;9.38;2.40;;;;;;;25.97;37.96;101168.84;6246318;23;20447;-42
2022/06/29 11:28:33;;;;;;;9.93;2.70;;;;;;;25.69;37.83;101142.34;6244531;23;20119;-42
2022/06/29 11:31:12;;;;;;;9.27;2.40;;;;;;;25.59;38.36;101177.25;6244930;23;20004;-43
2022/06/29 11:33:46;;;;;;;7.97;2.40;;;;;;;25.70;38.34;101166.84;6245920;23;20447;-42
2022/06/29 11:36:20;;;;;;;11.50;2.90;;;;;;;25.67;38.31;101161.56;6245049;23;20392;-42
2022/06/29 11:38:51;;;;;;;9.45;2.17;;;;;;;25.69;38.25;101163.38;6219548;23;20075;-41
2022/06/29 11:44:35;;;;;;;12.10;2.13;;;;;;;25.70;38.28;101156.34;6233445;23;20008;-42
2022/06/29 11:47:10;;;;;;;7.65;1.95;;;;;;;25.70;37.90;101148.47;6218909;23;20073;-42
2022/06/29 11:49:42;;;;;;;11.52;2.22;;;;;;;25.63;38.23;101111.66;6246063;23;20000;-42
2022/06/29 11:52:13;;;;;;;9.15;1.83;;;;;;;25.60;38.00;101143.13;6245500;23;20000;-43
2022/06/29 11:54:47;;;;;;;8.23;1.92;;;;;;;25.57;38.13;101132.59;6246022;23;20000;-47